Jewett, New York
Current Conditions -  °F | °C
As of 7:51 PM on Friday 28 Nov 2014 (Local Time) from KALB Reporting Station
Light Snow Light Snow  
Wind Chill: 14°   Ceiling: 5000
Heat Index: 25°   Visibility: 10mi
Dew Point: 13°   Wind: 13mph
Humidity: 60%   Direction: 260°W
Pressure: 30.22"   Gusts: NA
Location:  42.27°N, 74.3°W
Report Text: KALB 290051Z 26011KT 10SM -SN SCT043 BKN050 M04/M11 A3022 RMK AO2 SNB48 SLP239 P0000 T10391106
Loading
Personal Weather Stations






























Interactive Weather Map New forecast layout! Learn more

10-Day Weather Forecast

Advertisements
Track Severe Weather on mobile